createdAt,value
2022-09-15T00:01:27.889Z,77.77
2022-09-15T00:03:56.585Z,78.01
2022-09-15T00:06:24.859Z,77.96
2022-09-15T00:08:52.903Z,77.69
2022-09-15T00:11:27.001Z,78.12
2022-09-15T00:13:59.978Z,77.36
2022-09-15T00:16:33.104Z,77.66
2022-09-15T00:19:01.881Z,76.43
2022-09-15T00:21:33.508Z,76.24
2022-09-15T00:24:04.662Z,76.75
2022-09-15T00:26:34.263Z,76.72
2022-09-15T00:29:02.938Z,76.53
2022-09-15T00:31:32.598Z,76.65
2022-09-15T00:34:04.883Z,76.79
2022-09-15T00:36:33.494Z,77.66
2022-09-15T00:39:01.622Z,78.03
2022-09-15T00:41:30.857Z,77.96
2022-09-15T00:44:05.112Z,78.33
2022-09-15T00:46:36.499Z,79.04
2022-09-15T00:49:12.425Z,79.06
2022-09-15T00:51:47.681Z,79.73
2022-09-15T00:54:21.659Z,78.93
2022-09-15T00:56:55.181Z,78.54
2022-09-15T00:59:30.525Z,78.27
2022-09-15T01:02:11.489Z,78.78
2022-09-15T01:04:39.763Z,79.31
2022-09-15T01:07:13.255Z,78.67
2022-09-15T01:09:51.045Z,78.13
2022-09-15T01:12:20.245Z,78.31
2022-09-15T01:14:49.378Z,78.61
2022-09-15T01:17:34.303Z,78.83
2022-09-15T01:20:40.360Z,79.29
2022-09-15T01:24:02.010Z,79.23
2022-09-15T01:27:00.368Z,77.61
2022-09-15T01:30:02.126Z,77.66
2022-09-15T01:33:03.205Z,77.28
2022-09-15T01:35:52.354Z,77.17
2022-09-15T01:38:40.156Z,77.34
2022-09-15T01:41:15.673Z,76.39
2022-09-15T01:43:50.222Z,75.82
2022-09-15T01:46:24.404Z,75.20
2022-09-15T01:48:56.424Z,75.04
2022-09-15T01:51:31.165Z,75.60
2022-09-15T01:54:03.604Z,75.01
2022-09-15T01:56:31.974Z,74.88
2022-09-15T01:59:00.417Z,75.63
2022-09-15T02:01:43.684Z,76.13
2022-09-15T02:04:21.668Z,75.76
2022-09-15T02:06:57.596Z,75.83
2022-09-15T02:09:34.714Z,76.20
2022-09-15T02:12:18.704Z,76.21
2022-09-15T02:14:56.181Z,76.00
2022-09-15T02:17:32.585Z,76.41
2022-09-15T02:20:16.086Z,75.66
2022-09-15T02:22:53.195Z,75.21
2022-09-15T02:25:30.577Z,75.59
2022-09-15T02:28:05.822Z,76.11
2022-09-15T02:30:41.270Z,76.16
2022-09-15T02:33:15.842Z,76.50
2022-09-15T02:35:46.440Z,78.18
2022-09-15T02:38:15.465Z,78.18
2022-09-15T02:40:44.921Z,78.46
2022-09-15T02:43:18.880Z,77.62
2022-09-15T02:45:47.194Z,78.48
2022-09-15T02:48:17.751Z,78.16
2022-09-15T02:50:45.583Z,77.40
2022-09-15T02:53:13.767Z,77.48
2022-09-15T02:55:43.475Z,77.19
2022-09-15T02:58:11.535Z,76.79
2022-09-15T03:00:40.745Z,76.96
2022-09-15T03:03:08.674Z,76.22
2022-09-15T03:05:38.577Z,76.87
2022-09-15T03:08:06.531Z,76.68
2022-09-15T03:10:34.665Z,74.89
2022-09-15T03:13:02.530Z,74.40
2022-09-15T03:15:30.509Z,74.77
2022-09-15T03:17:58.339Z,74.80
2022-09-15T03:20:28.568Z,75.27
2022-09-15T03:22:57.840Z,74.36
2022-09-15T03:25:27.092Z,75.32
2022-09-15T03:27:55.068Z,74.49
2022-09-15T03:30:22.989Z,74.46
2022-09-15T03:32:50.801Z,74.32
2022-09-15T03:35:18.708Z,74.65
2022-09-15T03:37:50.467Z,75.33
2022-09-15T03:40:19.918Z,75.02
2022-09-15T03:42:50.805Z,74.97
2022-09-15T03:45:18.917Z,75.84
2022-09-15T03:47:47.265Z,75.24
2022-09-15T03:50:15.215Z,76.00
2022-09-15T03:52:43.434Z,75.13
2022-09-15T03:55:13.481Z,75.27
2022-09-15T03:57:43.578Z,76.05
2022-09-15T04:00:14.708Z,75.61
2022-09-15T04:02:44.127Z,77.40
2022-09-15T04:05:13.291Z,77.18
2022-09-15T04:07:41.866Z,77.32
2022-09-15T04:10:11.161Z,78.19
2022-09-15T04:12:39.181Z,77.07
2022-09-15T04:15:10.939Z,77.53
2022-09-15T04:17:38.813Z,77.55
2022-09-15T04:20:09.481Z,77.11
2022-09-15T04:22:37.292Z,77.86
2022-09-15T04:25:09.495Z,76.98
2022-09-15T04:27:38.599Z,77.64
2022-09-15T04:30:10.432Z,76.65
2022-09-15T04:32:38.296Z,76.14
2022-09-15T04:35:08.229Z,75.54
2022-09-15T04:37:37.230Z,76.12
2022-09-15T04:40:06.577Z,76.14
2022-09-15T04:42:34.388Z,76.20
2022-09-15T04:45:02.254Z,76.14
2022-09-15T04:47:31.424Z,76.27
2022-09-15T04:49:59.409Z,76.33
2022-09-15T04:52:27.185Z,76.36
2022-09-15T04:54:55.343Z,76.68
2022-09-15T04:57:23.178Z,76.55
2022-09-15T04:59:51.142Z,77.06
2022-09-15T05:02:19.123Z,76.65
2022-09-15T05:04:52.355Z,76.28
2022-09-15T05:07:20.451Z,78.76
2022-09-15T05:09:48.289Z,76.96
2022-09-15T05:12:16.175Z,76.08
2022-09-15T05:14:44.037Z,77.07
2022-09-15T05:17:11.964Z,76.27
2022-09-15T05:19:40.353Z,76.14
2022-09-15T05:22:09.487Z,77.16
2022-09-15T05:24:37.230Z,77.55
2022-09-15T05:27:05.760Z,77.36
2022-09-15T05:29:33.671Z,76.05
2022-09-15T05:32:02.029Z,75.92
2022-09-15T05:34:29.943Z,77.00
2022-09-15T05:36:57.875Z,75.49
2022-09-15T05:39:28.839Z,75.25
2022-09-15T05:41:57.094Z,74.56
2022-09-15T05:44:24.884Z,75.16
2022-09-15T05:46:52.776Z,74.80
2022-09-15T05:49:20.548Z,75.59
2022-09-15T05:51:48.295Z,75.08
2022-09-15T05:54:16.144Z,75.34
2022-09-15T05:56:45.339Z,74.30
2022-09-15T05:59:13.529Z,73.82
2022-09-15T06:01:43.955Z,74.64
2022-09-15T06:04:12.339Z,74.59
2022-09-15T06:06:40.373Z,73.97
2022-09-15T06:09:08.141Z,73.30
2022-09-15T06:11:36.095Z,72.99
2022-09-15T06:14:05.990Z,72.91
2022-09-15T06:16:35.679Z,73.40
2022-09-15T06:19:03.985Z,73.48
2022-09-15T06:21:33.286Z,72.25
2022-09-15T06:24:03.467Z,72.69
2022-09-15T06:26:31.247Z,71.11
2022-09-15T06:29:01.490Z,71.42
2022-09-15T06:31:32.911Z,71.24
2022-09-15T06:34:01.334Z,71.33
2022-09-15T06:36:30.833Z,70.21
2022-09-15T06:38:59.608Z,70.79
2022-09-15T06:41:35.361Z,70.80
2022-09-15T06:44:15.067Z,70.13
2022-09-15T06:46:44.519Z,69.60
2022-09-15T06:49:12.424Z,70.35
2022-09-15T06:51:40.436Z,70.14
2022-09-15T06:54:08.625Z,70.35
2022-09-15T06:56:38.500Z,69.70
2022-09-15T06:59:06.564Z,68.75
2022-09-15T07:01:34.559Z,68.78
2022-09-15T07:04:09.622Z,67.66
2022-09-15T07:06:39.651Z,67.23
2022-09-15T07:09:08.075Z,67.43
2022-09-15T07:11:36.235Z,68.28
2022-09-15T07:14:04.882Z,67.97
2022-09-15T07:16:33.496Z,68.05
2022-09-15T07:19:03.821Z,67.45
2022-09-15T07:21:31.782Z,67.69
2022-09-15T07:24:02.717Z,66.81
2022-09-15T07:26:34.704Z,66.13
2022-09-15T07:29:06.594Z,65.41
2022-09-15T07:31:38.319Z,63.93
2022-09-15T07:34:07.974Z,65.10
2022-09-15T07:36:36.108Z,62.47
2022-09-15T07:39:05.117Z,62.28
2022-09-15T07:41:33.490Z,62.58
2022-09-15T07:44:04.439Z,61.85
2022-09-15T07:46:33.633Z,60.69
2022-09-15T07:49:03.602Z,59.13
2022-09-15T07:51:32.846Z,59.42
2022-09-15T07:54:00.732Z,58.76
2022-09-15T07:56:28.588Z,58.29
2022-09-15T07:58:56.917Z,56.67
2022-09-15T08:01:24.831Z,56.64
2022-09-15T08:03:52.959Z,56.61
2022-09-15T08:06:23.192Z,56.87
2022-09-15T08:08:59.296Z,56.47
2022-09-15T08:11:29.983Z,56.05
2022-09-15T08:14:02.604Z,56.23
2022-09-15T08:16:31.302Z,55.79
2022-09-15T08:19:00.197Z,55.49
2022-09-15T08:21:29.099Z,54.71
2022-09-15T08:24:01.147Z,55.08
2022-09-15T08:26:30.851Z,54.52
2022-09-15T08:28:59.350Z,54.10
2022-09-15T08:31:27.355Z,53.91
2022-09-15T08:33:56.737Z,52.96
2022-09-15T08:36:27.929Z,51.85
2022-09-15T08:38:56.529Z,52.25
2022-09-15T08:41:32.209Z,50.55
2022-09-15T08:44:20.996Z,49.34
2022-09-15T08:46:56.694Z,50.61
2022-09-15T08:49:50.590Z,50.46
2022-09-15T08:52:26.876Z,50.66
2022-09-15T08:55:01.214Z,50.28
2022-09-15T08:57:30.583Z,49.85
2022-09-15T08:59:59.580Z,50.68
2022-09-15T09:02:44.994Z,50.29
2022-09-15T09:05:34.264Z,50.01
2022-09-15T09:08:26.644Z,50.05
2022-09-15T09:11:00.732Z,50.00
2022-09-15T09:13:42.781Z,50.32
2022-09-15T09:16:37.015Z,50.41
2022-09-15T09:19:47.392Z,48.09
2022-09-15T09:22:22.002Z,48.80
2022-09-15T09:24:55.244Z,48.06
2022-09-15T09:27:28.865Z,46.24
2022-09-15T09:30:03.822Z,46.40
2022-09-15T09:32:40.940Z,45.29
2022-09-15T09:35:23.870Z,44.65
2022-09-15T09:37:53.362Z,43.84
2022-09-15T09:40:23.081Z,44.87
2022-09-15T09:42:51.021Z,45.73
2022-09-15T09:45:20.248Z,46.59
2022-09-15T09:47:48.102Z,46.93
2022-09-15T09:50:36.819Z,47.33
2022-09-15T09:53:27.163Z,46.54
2022-09-15T09:56:15.903Z,46.31
2022-09-15T09:58:44.604Z,46.61
2022-09-15T10:01:16.425Z,46.14
2022-09-15T10:03:45.490Z,45.95
2022-09-15T10:06:18.782Z,45.42
2022-09-15T10:08:58.677Z,44.46
2022-09-15T10:11:44.368Z,43.79
2022-09-15T10:14:27.683Z,42.37
2022-09-15T10:17:00.793Z,41.81
2022-09-15T10:19:33.106Z,41.62
2022-09-15T10:22:04.206Z,41.39
2022-09-15T10:24:35.211Z,40.72
2022-09-15T10:27:18.988Z,41.11
2022-09-15T10:29:47.893Z,40.64
2022-09-15T10:32:25.722Z,40.26
2022-09-15T10:35:11.367Z,41.43
2022-09-15T10:38:02.943Z,41.48
2022-09-15T10:40:39.374Z,40.46
2022-09-15T10:43:32.774Z,40.29
2022-09-15T10:46:08.007Z,39.17
2022-09-15T10:48:55.725Z,38.59
2022-09-15T10:51:46.370Z,37.64
2022-09-15T10:54:49.699Z,37.69
2022-09-15T10:57:37.761Z,37.13
2022-09-15T11:00:12.010Z,37.63
2022-09-15T11:03:18.007Z,37.61
2022-09-15T11:06:05.012Z,37.23
2022-09-15T11:09:06.818Z,37.88
2022-09-15T11:11:48.577Z,38.36
2022-09-15T11:14:37.214Z,38.15
2022-09-15T11:17:26.925Z,37.70
2022-09-15T11:20:44.473Z,38.46
2022-09-15T11:23:20.663Z,39.16
2022-09-15T11:25:59.974Z,40.30
2022-09-15T11:28:37.657Z,41.25
2022-09-15T11:31:16.415Z,42.74
2022-09-15T11:33:55.147Z,43.76
2022-09-15T11:36:31.969Z,44.42
2022-09-15T11:39:12.557Z,44.91
2022-09-15T11:41:48.320Z,44.84
2022-09-15T11:44:25.086Z,45.82
2022-09-15T11:47:13.952Z,45.12
2022-09-15T11:49:49.405Z,45.26
2022-09-15T11:52:49.696Z,45.30
2022-09-15T11:55:31.868Z,44.28
2022-09-15T11:58:22.119Z,43.84
2022-09-15T12:01:00.025Z,43.61
2022-09-15T12:03:37.674Z,42.28
2022-09-15T12:06:14.976Z,41.59
2022-09-15T12:08:53.376Z,42.29
2022-09-15T12:11:26.711Z,42.42
2022-09-15T12:13:55.900Z,43.02
2022-09-15T12:16:26.345Z,42.78
2022-09-15T12:19:01.944Z,42.80
2022-09-15T12:21:37.351Z,43.88
2022-09-15T12:24:17.650Z,43.29
2022-09-15T12:26:47.408Z,42.00
2022-09-15T12:29:42.013Z,41.23
2022-09-15T12:32:24.610Z,40.91
2022-09-15T12:35:03.716Z,41.20
2022-09-15T12:37:41.474Z,41.55
2022-09-15T12:40:33.649Z,41.14
2022-09-15T12:43:16.420Z,41.69
2022-09-15T12:45:58.163Z,41.80
2022-09-15T12:48:30.992Z,42.74
2022-09-15T12:51:04.920Z,42.77
2022-09-15T12:53:38.060Z,43.42
2022-09-15T12:56:20.663Z,42.83
2022-09-15T12:58:52.117Z,42.29
2022-09-15T13:01:48.395Z,41.04
2022-09-15T13:04:58.032Z,40.54
2022-09-15T13:07:37.510Z,39.66
2022-09-15T13:10:37.050Z,40.37
2022-09-15T13:13:20.116Z,41.12
2022-09-15T13:15:53.436Z,41.22
2022-09-15T13:18:22.208Z,41.88
2022-09-15T13:21:00.249Z,42.55
2022-09-15T13:23:35.671Z,42.97
2022-09-15T13:26:12.136Z,43.33
2022-09-15T13:28:40.341Z,43.78
2022-09-15T13:31:27.415Z,44.25
2022-09-15T13:41:13.668Z,43.55
2022-09-15T13:44:20.989Z,43.56
2022-09-15T13:47:05.247Z,44.45
2022-09-15T13:49:51.242Z,44.29
2022-09-15T13:52:43.271Z,45.07
2022-09-15T13:55:24.032Z,45.67
2022-09-15T14:00:56.335Z,45.25
2022-09-15T14:03:37.469Z,45.37
2022-09-15T14:06:15.414Z,44.82
2022-09-15T14:08:47.425Z,45.08
2022-09-15T14:11:22.910Z,44.49
2022-09-15T14:13:52.388Z,44.84
2022-09-15T14:16:28.446Z,44.24
2022-09-15T14:19:00.042Z,44.48
2022-09-15T14:21:31.158Z,44.05
2022-09-15T14:24:04.163Z,43.98
2022-09-15T14:26:35.766Z,43.50
2022-09-15T14:29:06.606Z,43.40
2022-09-15T14:31:40.814Z,42.38
2022-09-15T14:34:18.506Z,40.41
2022-09-15T14:36:59.205Z,38.54
2022-09-15T14:39:27.389Z,39.26
2022-09-15T14:41:55.393Z,39.52
2022-09-15T14:47:28.019Z,40.12
2022-09-15T14:50:13.279Z,39.69
2022-09-15T14:52:44.631Z,38.97
2022-09-15T14:55:19.349Z,37.59
2022-09-15T14:57:58.289Z,38.33
2022-09-15T15:00:32.091Z,39.53
2022-09-15T15:03:23.723Z,39.93
2022-09-15T15:06:02.671Z,41.12
2022-09-15T15:08:45.423Z,42.12
2022-09-15T15:11:17.892Z,41.77
2022-09-15T15:13:51.916Z,41.94
2022-09-15T15:16:24.179Z,42.49
2022-09-15T15:18:53.655Z,42.62
2022-09-15T15:21:39.272Z,42.17
2022-09-15T15:24:19.629Z,42.45
2022-09-15T15:26:48.995Z,42.93
2022-09-15T15:29:41.085Z,42.62
2022-09-15T15:32:16.258Z,42.93
2022-09-15T15:34:53.153Z,43.06
2022-09-15T15:37:29.308Z,43.21
2022-09-15T15:40:02.171Z,43.83
2022-09-15T15:42:30.247Z,43.86
2022-09-15T15:45:02.126Z,43.42
2022-09-15T15:47:35.052Z,43.86
2022-09-15T15:50:13.899Z,43.49
2022-09-15T15:52:43.998Z,43.37
2022-09-15T15:55:17.648Z,43.43
2022-09-15T15:57:50.034Z,43.48
2022-09-15T16:00:23.137Z,43.50
2022-09-15T16:02:52.055Z,43.12
2022-09-15T16:05:25.087Z,43.75
2022-09-15T16:07:59.044Z,42.92
2022-09-15T16:10:33.738Z,41.76
2022-09-15T16:13:01.564Z,42.16
2022-09-15T16:15:29.497Z,41.44
2022-09-15T16:17:57.293Z,40.53
2022-09-15T16:20:25.212Z,39.83
2022-09-15T16:22:54.646Z,40.41
2022-09-15T16:25:35.233Z,41.15
2022-09-15T16:28:04.541Z,41.54
2022-09-15T16:30:33.427Z,42.64
2022-09-15T16:33:01.895Z,43.33
2022-09-15T16:35:42.888Z,43.21
2022-09-15T16:38:12.417Z,42.89
2022-09-15T16:40:40.217Z,42.51
2022-09-15T16:43:13.661Z,43.15
2022-09-15T16:45:42.230Z,43.41
2022-09-15T16:48:10.891Z,43.71
2022-09-15T16:50:50.080Z,43.76
2022-09-15T16:53:30.930Z,43.86
2022-09-15T16:55:58.839Z,44.63
2022-09-15T16:58:26.694Z,44.48
2022-09-15T17:00:55.843Z,44.71
2022-09-15T17:03:26.704Z,45.17
2022-09-15T17:05:57.563Z,45.33
2022-09-15T17:08:29.684Z,44.82
2022-09-15T17:11:00.740Z,44.58
2022-09-15T17:13:31.685Z,45.16
2022-09-15T17:16:01.032Z,45.04
2022-09-15T17:18:30.454Z,45.13
2022-09-15T17:21:00.379Z,45.44
2022-09-15T17:23:35.698Z,45.51
2022-09-15T17:26:05.348Z,46.21
2022-09-15T17:28:36.515Z,46.09
2022-09-15T17:31:11.897Z,46.32
2022-09-15T17:33:39.924Z,46.18
2022-09-15T17:36:08.271Z,45.94
2022-09-15T17:38:37.981Z,46.48
2022-09-15T17:41:06.294Z,46.22
2022-09-15T17:43:34.516Z,46.76
2022-09-15T17:46:02.424Z,46.51
2022-09-15T17:48:30.170Z,46.74
2022-09-15T17:50:58.370Z,46.65
2022-09-15T17:53:30.623Z,46.48
2022-09-15T17:55:59.862Z,46.36
2022-09-15T17:58:29.825Z,46.64
2022-09-15T18:00:59.321Z,47.30
2022-09-15T18:03:32.603Z,47.63
2022-09-15T18:06:05.120Z,48.18
2022-09-15T18:08:34.187Z,48.01
2022-09-15T18:11:05.203Z,48.63
2022-09-15T18:13:34.440Z,48.61
2022-09-15T18:16:05.239Z,49.46
2022-09-15T18:18:34.675Z,49.76
2022-09-15T18:21:09.565Z,50.24
2022-09-15T18:23:39.055Z,51.03
2022-09-15T18:26:08.353Z,51.22
2022-09-15T18:28:36.156Z,51.11
2022-09-15T18:31:03.984Z,51.08
2022-09-15T18:33:31.844Z,51.29
2022-09-15T18:36:00.028Z,51.64
2022-09-15T18:38:27.997Z,51.81
2022-09-15T18:40:57.331Z,51.70
2022-09-15T18:43:28.374Z,51.37
2022-09-15T18:45:59.991Z,51.03
2022-09-15T18:48:29.079Z,52.08
2022-09-15T18:50:57.262Z,51.79
2022-09-15T18:53:26.335Z,51.53
2022-09-15T18:55:55.787Z,51.83
2022-09-15T18:58:24.000Z,51.29
2022-09-15T19:01:00.261Z,51.75
2022-09-15T19:03:29.417Z,51.60
2022-09-15T19:06:03.407Z,51.49
2022-09-15T19:08:31.630Z,51.44
2022-09-15T19:11:02.254Z,51.30
2022-09-15T19:13:30.517Z,51.69
2022-09-15T19:16:05.558Z,51.77
2022-09-15T19:18:35.801Z,51.76
2022-09-15T19:21:06.167Z,51.73
2022-09-15T19:23:38.154Z,51.73
2022-09-15T19:26:13.521Z,52.39
2022-09-15T19:28:41.430Z,51.95
2022-09-15T19:31:12.268Z,52.61
2022-09-15T19:33:40.308Z,52.03
2022-09-15T19:36:28.553Z,53.18
2022-09-15T19:38:57.378Z,53.60
2022-09-15T19:41:26.133Z,53.30
2022-09-15T19:43:54.511Z,54.17
2022-09-15T19:46:25.590Z,53.63
2022-09-15T19:48:54.758Z,54.53
2022-09-15T19:51:23.208Z,55.26
2022-09-15T19:53:54.678Z,55.13
2022-09-15T19:56:26.257Z,55.42
2022-09-15T19:58:57.671Z,55.34
2022-09-15T20:01:31.976Z,55.69
2022-09-15T20:04:02.008Z,55.74
2022-09-15T20:06:32.770Z,56.14
2022-09-15T20:09:01.383Z,56.01
2022-09-15T20:11:30.940Z,56.56
2022-09-15T20:14:00.682Z,57.99
2022-09-15T20:16:30.477Z,58.28
2022-09-15T20:18:58.475Z,58.92
2022-09-15T20:21:49.213Z,59.05
2022-09-15T20:24:19.039Z,59.38
2022-09-15T20:26:47.114Z,59.57
2022-09-15T20:29:15.174Z,60.34
2022-09-15T20:31:44.391Z,60.59
2022-09-15T20:34:13.535Z,60.57
2022-09-15T20:36:41.864Z,60.74
2022-09-15T20:39:13.222Z,60.99
2022-09-15T20:41:46.051Z,61.57
2022-09-15T20:44:14.645Z,62.57
2022-09-15T20:46:44.077Z,62.60
2022-09-15T20:49:12.466Z,63.65
2022-09-15T20:51:40.307Z,64.18
2022-09-15T20:54:10.741Z,63.65
2022-09-15T20:56:39.639Z,63.08
2022-09-15T20:59:10.242Z,63.74
2022-09-15T21:01:39.123Z,65.02
2022-09-15T21:04:09.937Z,64.63
2022-09-15T21:06:39.006Z,65.25
2022-09-15T21:09:07.910Z,65.48
2022-09-15T21:11:36.500Z,66.66
2022-09-15T21:14:04.864Z,65.91
2022-09-15T21:16:34.760Z,66.74
2022-09-15T21:19:02.855Z,66.59
2022-09-15T21:21:34.116Z,66.44
2022-09-15T21:24:05.303Z,66.61
2022-09-15T21:26:56.938Z,66.41
2022-09-15T21:29:25.330Z,67.39
2022-09-15T21:31:53.458Z,68.30
2022-09-15T21:34:21.362Z,69.45
2022-09-15T21:36:51.650Z,70.13
2022-09-15T21:39:19.601Z,70.95
2022-09-15T21:41:47.483Z,71.26
2022-09-15T21:44:15.647Z,72.53
2022-09-15T21:46:44.856Z,72.92
2022-09-15T21:49:12.627Z,72.64
2022-09-15T21:51:40.582Z,73.57
2022-09-15T21:54:10.643Z,73.36
2022-09-15T21:56:39.652Z,73.49
2022-09-15T21:59:08.939Z,74.50
2022-09-15T22:01:38.486Z,73.56
2022-09-15T22:04:08.275Z,74.11
2022-09-15T22:06:40.303Z,74.17
2022-09-15T22:09:14.350Z,73.41
2022-09-15T22:11:42.354Z,73.86
2022-09-15T22:14:11.885Z,73.39
2022-09-15T22:16:42.165Z,73.83
2022-09-15T22:19:12.105Z,73.28
2022-09-15T22:21:41.763Z,72.98
2022-09-15T22:24:13.383Z,73.55
2022-09-15T22:26:42.742Z,73.96
2022-09-15T22:29:11.532Z,73.25
2022-09-15T22:31:39.471Z,73.95
2022-09-15T22:34:07.498Z,74.10
2022-09-15T22:36:35.268Z,74.20
2022-09-15T22:39:05.207Z,75.73
2022-09-15T22:41:38.760Z,74.09
2022-09-15T22:44:16.577Z,73.87
2022-09-15T22:46:44.577Z,74.31
2022-09-15T22:49:12.535Z,73.72
2022-09-15T22:51:40.510Z,73.71
2022-09-15T22:54:08.348Z,73.47
2022-09-15T22:56:37.565Z,73.25
2022-09-15T22:59:05.818Z,73.46
2022-09-15T23:01:33.664Z,73.77
2022-09-15T23:04:03.332Z,73.42
2022-09-15T23:06:34.003Z,73.31
2022-09-15T23:09:06.246Z,73.44
2022-09-15T23:11:42.312Z,74.00
2022-09-15T23:14:15.272Z,73.35
2022-09-15T23:16:44.198Z,73.94
2022-09-15T23:19:13.417Z,74.06
2022-09-15T23:21:42.734Z,73.93
2022-09-15T23:24:12.405Z,73.67
2022-09-15T23:26:41.861Z,73.72
2022-09-15T23:29:10.296Z,74.54
2022-09-15T23:31:38.490Z,74.52
2022-09-15T23:34:06.432Z,73.90
2022-09-15T23:36:34.427Z,73.75
2022-09-15T23:39:04.144Z,73.20
2022-09-15T23:41:33.395Z,72.98
2022-09-15T23:44:03.262Z,73.26
2022-09-15T23:46:33.112Z,73.00
2022-09-15T23:49:00.972Z,72.55
2022-09-15T23:51:28.810Z,72.14
2022-09-15T23:53:56.549Z,72.23
2022-09-15T23:56:24.446Z,71.32
2022-09-15T23:58:52.334Z,71.48
